sensor_id;sensor_type;location;lat;lon;timestamp;pressure;altitude;pressure_sealevel;temperature;humidity
65329;BME280;51941;52.210;5.158;2023-04-07T00:00:04;101395.47;;;9.16;100.00
65329;BME280;51941;52.210;5.158;2023-04-07T00:02:38;101419.22;;;9.30;100.00
65329;BME280;51941;52.210;5.158;2023-04-07T00:05:05;101416.81;;;9.28;100.00
65329;BME280;51941;52.210;5.158;2023-04-07T00:07:32;101409.28;;;9.25;100.00
65329;BME280;51941;52.210;5.158;2023-04-07T00:09:58;101358.13;;;9.00;100.00
65329;BME280;51941;52.210;5.158;2023-04-07T00:12:25;101411.72;;;9.13;100.00
65329;BME280;51941;52.210;5.158;2023-04-07T00:14:52;101391.66;;;8.93;100.00
65329;BME280;51941;52.210;5.158;2023-04-07T00:17:18;101419.88;;;9.18;100.00
65329;BME280;51941;52.210;5.158;2023-04-07T00:19:46;101398.31;;;9.08;100.00
65329;BME280;51941;52.210;5.158;2023-04-07T00:22:13;101415.16;;;9.21;100.00
65329;BME280;51941;52.210;5.158;2023-04-07T00:24:40;101406.84;;;9.10;100.00
65329;BME280;51941;52.210;5.158;2023-04-07T00:27:06;101418.84;;;9.20;100.00
65329;BME280;51941;52.210;5.158;2023-04-07T00:29:33;101419.44;;;9.22;100.00
65329;BME280;51941;52.210;5.158;2023-04-07T00:32:00;101406.63;;;9.12;100.00
65329;BME280;51941;52.210;5.158;2023-04-07T00:34:26;101415.41;;;9.19;100.00
65329;BME280;51941;52.210;5.158;2023-04-07T00:36:54;101418.03;;;9.19;100.00
65329;BME280;51941;52.210;5.158;2023-04-07T00:39:21;101418.03;;;9.19;100.00
65329;BME280;51941;52.210;5.158;2023-04-07T00:41:48;101415.56;;;9.24;100.00
65329;BME280;51941;52.210;5.158;2023-04-07T00:44:15;101413.34;;;9.28;100.00
65329;BME280;51941;52.210;5.158;2023-04-07T00:46:42;101415.41;;;9.19;100.00
65329;BME280;51941;52.210;5.158;2023-04-07T00:49:09;101412.31;;;9.22;100.00
65329;BME280;51941;52.210;5.158;2023-04-07T00:51:37;101421.69;;;9.25;100.00
65329;BME280;51941;52.210;5.158;2023-04-07T00:54:05;101421.66;;;9.11;100.00
65329;BME280;51941;52.210;5.158;2023-04-07T00:56:32;101397.53;;;9.01;100.00
65329;BME280;51941;52.210;5.158;2023-04-07T00:58:58;101398.94;;;8.97;100.00
65329;BME280;51941;52.210;5.158;2023-04-07T01:01:31;101429.59;;;9.05;100.00
65329;BME280;51941;52.210;5.158;2023-04-07T01:04:04;101429.59;;;9.11;100.00
65329;BME280;51941;52.210;5.158;2023-04-07T01:06:38;101431.00;;;9.14;100.00
65329;BME280;51941;52.210;5.158;2023-04-07T01:09:13;101428.59;;;9.19;100.00
65329;BME280;51941;52.210;5.158;2023-04-07T01:11:47;101408.25;;;9.13;100.00
65329;BME280;51941;52.210;5.158;2023-04-07T01:14:19;101424.31;;;9.25;100.00
65329;BME280;51941;52.210;5.158;2023-04-07T01:16:55;101422.06;;;9.15;100.00
65329;BME280;51941;52.210;5.158;2023-04-07T01:19:33;101421.25;;;9.14;100.00
65329;BME280;51941;52.210;5.158;2023-04-07T01:22:06;101404.00;;;9.05;100.00
65329;BME280;51941;52.210;5.158;2023-04-07T01:24:45;101391.00;;;9.04;100.00
65329;BME280;51941;52.210;5.158;2023-04-07T01:27:24;101411.31;;;9.23;100.00
65329;BME280;51941;52.210;5.158;2023-04-07T01:30:00;101419.44;;;9.15;100.00
65329;BME280;51941;52.210;5.158;2023-04-07T01:32:29;101411.75;;;9.20;100.00
65329;BME280;51941;52.210;5.158;2023-04-07T01:34:58;101418.03;;;9.19;100.00
65329;BME280;51941;52.210;5.158;2023-04-07T01:37:26;101368.28;;;8.96;100.00
65329;BME280;51941;52.210;5.158;2023-04-07T01:39:53;101422.69;;;9.24;100.00
65329;BME280;51941;52.210;5.158;2023-04-07T01:42:20;101422.88;;;9.22;100.00
65329;BME280;51941;52.210;5.158;2023-04-07T01:44:49;101426.16;;;9.24;100.00
65329;BME280;51941;52.210;5.158;2023-04-07T01:47:18;101426.53;;;9.21;100.00
65329;BME280;51941;52.210;5.158;2023-04-07T01:49:46;101430.81;;;9.22;100.00
65329;BME280;51941;52.210;5.158;2023-04-07T01:52:15;101434.06;;;9.24;100.00
65329;BME280;51941;52.210;5.158;2023-04-07T01:54:42;101435.50;;;9.27;100.00
65329;BME280;51941;52.210;5.158;2023-04-07T01:57:09;101428.38;;;9.27;100.00
65329;BME280;51941;52.210;5.158;2023-04-07T01:59:35;101434.47;;;9.28;100.00
65329;BME280;51941;52.210;5.158;2023-04-07T02:02:04;101432.03;;;9.26;100.00
65329;BME280;51941;52.210;5.158;2023-04-07T02:04:36;101434.84;;;9.31;100.00
65329;BME280;51941;52.210;5.158;2023-04-07T02:07:08;101430.00;;;9.28;100.00
65329;BME280;51941;52.210;5.158;2023-04-07T02:09:43;101437.69;;;9.30;100.00
65329;BME280;51941;52.210;5.158;2023-04-07T02:12:12;101433.66;;;9.27;100.00
65329;BME280;51941;52.210;5.158;2023-04-07T02:14:47;101440.38;;;9.23;100.00
65329;BME280;51941;52.210;5.158;2023-04-07T02:17:15;101432.66;;;9.22;100.00
65329;BME280;51941;52.210;5.158;2023-04-07T02:19:45;101434.47;;;9.21;100.00
65329;BME280;51941;52.210;5.158;2023-04-07T02:22:14;101425.97;;;9.19;100.00
65329;BME280;51941;52.210;5.158;2023-04-07T02:24:41;101435.50;;;9.27;100.00
65329;BME280;51941;52.210;5.158;2023-04-07T02:27:08;101438.13;;;9.27;100.00
65329;BME280;51941;52.210;5.158;2023-04-07T02:29:35;101420.03;;;9.17;100.00
65329;BME280;51941;52.210;5.158;2023-04-07T02:32:01;101433.84;;;9.32;100.00
65329;BME280;51941;52.210;5.158;2023-04-07T02:34:28;101435.06;;;9.36;100.00
65329;BME280;51941;52.210;5.158;2023-04-07T02:36:56;101435.66;;;9.38;100.00
65329;BME280;51941;52.210;5.158;2023-04-07T02:39:23;101438.53;;;9.30;100.00
65329;BME280;51941;52.210;5.158;2023-04-07T02:41:50;101432.00;;;9.33;100.00
65329;BME280;51941;52.210;5.158;2023-04-07T02:44:16;101436.31;;;9.27;100.00
65329;BME280;51941;52.210;5.158;2023-04-07T02:46:43;101428.19;;;9.29;100.00
65329;BME280;51941;52.210;5.158;2023-04-07T02:49:10;101438.72;;;9.15;100.00
65329;BME280;51941;52.210;5.158;2023-04-07T02:51:37;101438.75;;;9.29;100.00
65329;BME280;51941;52.210;5.158;2023-04-07T02:54:05;101435.28;;;9.28;100.00
65329;BME280;51941;52.210;5.158;2023-04-07T02:58:58;101431.59;;;9.29;100.00
65329;BME280;51941;52.210;5.158;2023-04-07T03:01:26;101433.66;;;9.27;100.00
65329;BME280;51941;52.210;5.158;2023-04-07T03:03:52;101403.81;;;9.07;100.00
65329;BME280;51941;52.210;5.158;2023-04-07T03:06:22;101433.06;;;9.25;100.00
65329;BME280;51941;52.210;5.158;2023-04-07T03:09:07;101422.31;;;9.20;100.00
65329;BME280;51941;52.210;5.158;2023-04-07T03:11:34;101428.19;;;9.22;100.00
65329;BME280;51941;52.210;5.158;2023-04-07T03:14:00;101405.44;;;9.08;100.00
65329;BME280;51941;52.210;5.158;2023-04-07T03:16:29;101428.97;;;9.16;100.00
65329;BME280;51941;52.210;5.158;2023-04-07T03:19:16;101431.00;;;9.14;100.00
65329;BME280;51941;52.210;5.158;2023-04-07T03:21:46;101432.06;;;9.20;100.00
65329;BME280;51941;52.210;5.158;2023-04-07T03:24:14;101428.19;;;9.22;100.00
65329;BME280;51941;52.210;5.158;2023-04-07T03:26:44;101428.78;;;9.24;100.00
65329;BME280;51941;52.210;5.158;2023-04-07T03:29:37;101418.84;;;9.20;100.00
65329;BME280;51941;52.210;5.158;2023-04-07T03:32:06;101425.97;;;9.19;100.00
65329;BME280;51941;52.210;5.158;2023-04-07T03:34:33;101431.22;;;9.12;100.00
65329;BME280;51941;52.210;5.158;2023-04-07T03:37:00;101445.66;;;9.10;100.00
65329;BME280;51941;52.210;5.158;2023-04-07T03:39:31;101435.47;;;9.13;100.00
65329;BME280;51941;52.210;5.158;2023-04-07T03:42:01;101434.91;;;8.98;100.00
65329;BME280;51941;52.210;5.158;2023-04-07T03:44:30;101430.81;;;9.09;100.00
65329;BME280;51941;52.210;5.158;2023-04-07T03:46:57;101437.72;;;9.03;100.00
65329;BME280;51941;52.210;5.158;2023-04-07T03:49:25;101421.72;;;8.92;100.00
65329;BME280;51941;52.210;5.158;2023-04-07T03:51:53;101435.28;;;9.15;100.00
65329;BME280;51941;52.210;5.158;2023-04-07T03:54:20;101435.69;;;9.12;100.00
65329;BME280;51941;52.210;5.158;2023-04-07T03:56:52;101442.19;;;9.16;100.00
65329;BME280;51941;52.210;5.158;2023-04-07T03:59:21;101448.47;;;9.15;100.00
65329;BME280;51941;52.210;5.158;2023-04-07T04:01:57;101443.81;;;9.17;100.00
65329;BME280;51941;52.210;5.158;2023-04-07T04:04:24;101455.59;;;9.14;100.00
65329;BME280;51941;52.210;5.158;2023-04-07T04:06:51;101451.94;;;9.09;100.00
65329;BME280;51941;52.210;5.158;2023-04-07T04:09:38;101440.78;;;9.00;100.00
65329;BME280;51941;52.210;5.158;2023-04-07T04:12:06;101454.38;;;9.17;100.00
65329;BME280;51941;52.210;5.158;2023-04-07T04:14:39;101452.97;;;8.88;100.00
65329;BME280;51941;52.210;5.158;2023-04-07T04:17:07;101451.16;;;9.02;100.00
65329;BME280;51941;52.210;5.158;2023-04-07T04:19:41;101454.00;;;8.94;100.00
65329;BME280;51941;52.210;5.158;2023-04-07T04:22:31;101451.94;;;8.96;100.00
65329;BME280;51941;52.210;5.158;2023-04-07T04:24:58;101389.88;;;8.40;100.00
65329;BME280;51941;52.210;5.158;2023-04-07T04:27:27;101453.41;;;8.92;100.00
65329;BME280;51941;52.210;5.158;2023-04-07T04:30:04;101455.22;;;8.98;100.00
65329;BME280;51941;52.210;5.158;2023-04-07T04:32:51;101466.41;;;8.93;100.00
65329;BME280;51941;52.210;5.158;2023-04-07T04:35:26;101442.81;;;8.85;100.00
65329;BME280;51941;52.210;5.158;2023-04-07T04:38:03;101469.66;;;9.02;100.00
65329;BME280;51941;52.210;5.158;2023-04-07T04:40:31;101453.78;;;8.89;100.00
65329;BME280;51941;52.210;5.158;2023-04-07T04:42:59;101469.84;;;9.00;100.00
65329;BME280;51941;52.210;5.158;2023-04-07T04:45:27;101470.88;;;8.93;100.00
65329;BME280;51941;52.210;5.158;2023-04-07T04:47:54;101477.97;;;8.99;100.00
65329;BME280;51941;52.210;5.158;2023-04-07T04:50:20;101478.97;;;8.98;100.00
65329;BME280;51941;52.210;5.158;2023-04-07T04:52:51;101457.44;;;8.88;100.00
65329;BME280;51941;52.210;5.158;2023-04-07T04:55:21;101482.00;;;8.95;100.00
65329;BME280;51941;52.210;5.158;2023-04-07T04:57:49;101482.63;;;9.03;100.00
65329;BME280;51941;52.210;5.158;2023-04-07T05:00:24;101488.31;;;9.13;100.00
65329;BME280;51941;52.210;5.158;2023-04-07T05:02:56;101495.22;;;9.08;100.00
65329;BME280;51941;52.210;5.158;2023-04-07T05:05:23;101471.06;;;8.98;100.00
65329;BME280;51941;52.210;5.158;2023-04-07T05:07:52;101492.97;;;9.11;100.00
65329;BME280;51941;52.210;5.158;2023-04-07T05:10:22;101493.19;;;9.10;100.00
65329;BME280;51941;52.210;5.158;2023-04-07T05:12:50;101494.59;;;9.12;100.00
65329;BME280;51941;52.210;5.158;2023-04-07T05:15:16;101503.94;;;9.15;100.00
65329;BME280;51941;52.210;5.158;2023-04-07T05:17:48;101485.47;;;9.15;100.00
65329;BME280;51941;52.210;5.158;2023-04-07T05:20:20;101495.66;;;9.18;100.00
65329;BME280;51941;52.210;5.158;2023-04-07T05:22:47;101487.09;;;8.96;100.00
65329;BME280;51941;52.210;5.158;2023-04-07T05:25:13;101498.25;;;9.11;100.00
65329;BME280;51941;52.210;5.158;2023-04-07T05:27:43;101503.53;;;9.11;100.00
65329;BME280;51941;52.210;5.158;2023-04-07T05:30:14;101500.88;;;9.11;100.00
65329;BME280;51941;52.210;5.158;2023-04-07T05:32:41;101501.69;;;9.12;100.00
65329;BME280;51941;52.210;5.158;2023-04-07T05:35:18;101503.34;;;9.13;100.00
65329;BME280;51941;52.210;5.158;2023-04-07T05:37:50;101507.41;;;9.15;100.00
65329;BME280;51941;52.210;5.158;2023-04-07T05:40:17;101510.03;;;9.15;100.00
65329;BME280;51941;52.210;5.158;2023-04-07T05:42:44;101511.88;;;9.15;100.00
65329;BME280;51941;52.210;5.158;2023-04-07T05:45:12;101517.16;;;9.15;100.00
65329;BME280;51941;52.210;5.158;2023-04-07T05:47:43;101508.66;;;9.20;100.00
65329;BME280;51941;52.210;5.158;2023-04-07T05:50:12;101518.81;;;9.23;100.00
65329;BME280;51941;52.210;5.158;2023-04-07T05:52:41;101523.88;;;9.24;100.00
65329;BME280;51941;52.210;5.158;2023-04-07T05:55:18;101503.94;;;9.15;100.00
65329;BME280;51941;52.210;5.158;2023-04-07T05:57:46;101520.84;;;9.27;100.00
65329;BME280;51941;52.210;5.158;2023-04-07T06:00:15;101525.91;;;9.22;100.00
65329;BME280;51941;52.210;5.158;2023-04-07T06:02:48;101520.66;;;9.29;100.00
65329;BME280;51941;52.210;5.158;2023-04-07T06:05:18;101530.59;;;9.27;100.00
65329;BME280;51941;52.210;5.158;2023-04-07T06:07:48;101531.41;;;9.27;100.00
65329;BME280;51941;52.210;5.158;2023-04-07T06:10:15;101515.53;;;9.14;100.00
65329;BME280;51941;52.210;5.158;2023-04-07T06:12:44;101534.03;;;9.21;100.00
65329;BME280;51941;52.210;5.158;2023-04-07T06:15:11;101537.09;;;9.24;100.00
65329;BME280;51941;52.210;5.158;2023-04-07T06:17:38;101504.78;;;9.09;100.00
65329;BME280;51941;52.210;5.158;2023-04-07T06:20:06;101539.72;;;9.24;100.00
65329;BME280;51941;52.210;5.158;2023-04-07T06:22:33;101544.41;;;9.29;100.00
65329;BME280;51941;52.210;5.158;2023-04-07T06:25:01;101537.91;;;9.18;100.00
65329;BME280;51941;52.210;5.158;2023-04-07T06:27:30;101546.03;;;9.30;100.00
65329;BME280;51941;52.210;5.158;2023-04-07T06:29:57;101548.25;;;9.33;100.00
65329;BME280;51941;52.210;5.158;2023-04-07T06:32:24;101553.34;;;9.34;100.00
65329;BME280;51941;52.210;5.158;2023-04-07T06:34:51;101539.31;;;9.34;100.00
65329;BME280;51941;52.210;5.158;2023-04-07T06:37:19;101544.41;;;9.35;100.00
65329;BME280;51941;52.210;5.158;2023-04-07T06:39:45;101543.78;;;9.40;100.00
65329;BME280;51941;52.210;5.158;2023-04-07T06:42:13;101546.63;;;9.45;100.00
65329;BME280;51941;52.210;5.158;2023-04-07T06:44:49;101553.13;;;9.49;100.00
65329;BME280;51941;52.210;5.158;2023-04-07T06:47:15;101554.34;;;9.53;100.00
65329;BME280;51941;52.210;5.158;2023-04-07T06:49:42;101565.09;;;9.58;100.00
65329;BME280;51941;52.210;5.158;2023-04-07T06:52:09;101563.50;;;9.50;100.00
65329;BME280;51941;52.210;5.158;2023-04-07T06:54:35;101567.94;;;9.56;100.00
65329;BME280;51941;52.210;5.158;2023-04-07T06:57:02;101546.03;;;9.36;100.00
65329;BME280;51941;52.210;5.158;2023-04-07T06:59:32;101568.97;;;9.62;100.00
65329;BME280;51941;52.210;5.158;2023-04-07T07:01:59;101560.03;;;9.63;100.00
65329;BME280;51941;52.210;5.158;2023-04-07T07:04:25;101575.84;;;9.76;100.00
65329;BME280;51941;52.210;5.158;2023-04-07T07:06:52;101570.97;;;9.73;100.00
65329;BME280;51941;52.210;5.158;2023-04-07T07:09:20;101575.66;;;9.58;100.00
65329;BME280;51941;52.210;5.158;2023-04-07T07:11:47;101585.00;;;9.67;100.00
65329;BME280;51941;52.210;5.158;2023-04-07T07:14:13;101580.75;;;9.73;100.00
65329;BME280;51941;52.210;5.158;2023-04-07T07:16:41;101585.00;;;9.74;100.00
65329;BME280;51941;52.210;5.158;2023-04-07T07:19:08;101547.44;;;9.39;100.00
65329;BME280;51941;52.210;5.158;2023-04-07T07:21:35;101559.03;;;9.44;100.00
65329;BME280;51941;52.210;5.158;2023-04-07T07:24:02;101575.66;;;9.58;100.00
65329;BME280;51941;52.210;5.158;2023-04-07T07:26:29;101594.75;;;9.67;100.00
65329;BME280;51941;52.210;5.158;2023-04-07T07:28:55;101569.59;;;9.51;100.00
65329;BME280;51941;52.210;5.158;2023-04-07T07:31:22;101595.19;;;9.70;100.00
65329;BME280;51941;52.210;5.158;2023-04-07T07:33:51;101588.03;;;9.77;100.00
65329;BME280;51941;52.210;5.158;2023-04-07T07:36:18;101598.84;;;9.69;100.00
65329;BME280;51941;52.210;5.158;2023-04-07T07:38:45;101583.59;;;9.58;100.00
65329;BME280;51941;52.210;5.158;2023-04-07T07:41:11;101600.03;;;9.73;100.00
65329;BME280;51941;52.210;5.158;2023-04-07T07:43:38;101609.00;;;9.79;100.00
65329;BME280;51941;52.210;5.158;2023-04-07T07:46:05;101609.19;;;9.77;100.00
65329;BME280;51941;52.210;5.158;2023-04-07T07:48:32;101609.59;;;9.81;100.00
65329;BME280;51941;52.210;5.158;2023-04-07T07:51:00;101611.81;;;9.84;100.00
65329;BME280;51941;52.210;5.158;2023-04-07T07:53:26;101611.19;;;9.95;100.00
65329;BME280;51941;52.210;5.158;2023-04-07T07:55:53;101613.22;;;10.06;100.00
65329;BME280;51941;52.210;5.158;2023-04-07T07:58:20;101612.03;;;9.89;100.00
65329;BME280;51941;52.210;5.158;2023-04-07T08:00:47;101617.75;;;9.79;100.00
65329;BME280;51941;52.210;5.158;2023-04-07T08:03:15;101617.31;;;9.82;100.00
65329;BME280;51941;52.210;5.158;2023-04-07T08:05:41;101616.72;;;9.80;100.00
65329;BME280;51941;52.210;5.158;2023-04-07T08:08:09;101616.53;;;9.62;100.00
65329;BME280;51941;52.210;5.158;2023-04-07T08:10:36;101627.69;;;9.77;100.00
65329;BME280;51941;52.210;5.158;2023-04-07T08:13:03;101617.16;;;9.71;100.00
65329;BME280;51941;52.210;5.158;2023-04-07T08:15:30;101630.75;;;9.81;100.00
65329;BME280;51941;52.210;5.158;2023-04-07T08:17:56;101643.56;;;9.77;100.00
65329;BME280;51941;52.210;5.158;2023-04-07T08:20:25;101635.22;;;9.87;100.00
65329;BME280;51941;52.210;5.158;2023-04-07T08:22:51;101635.59;;;9.97;100.00
65329;BME280;51941;52.210;5.158;2023-04-07T08:25:19;101630.88;;;10.12;100.00
65329;BME280;51941;52.210;5.158;2023-04-07T08:27:46;101638.63;;;10.07;100.00
65329;BME280;51941;52.210;5.158;2023-04-07T08:30:13;101639.84;;;10.05;100.00
65329;BME280;51941;52.210;5.158;2023-04-07T08:32:41;101647.38;;;10.01;100.00
65329;BME280;51941;52.210;5.158;2023-04-07T08:35:08;101614.69;;;9.76;100.00
65329;BME280;51941;52.210;5.158;2023-04-07T08:37:37;101659.63;;;9.96;100.00
65329;BME280;51941;52.210;5.158;2023-04-07T08:40:05;101634.63;;;9.72;100.00
65329;BME280;51941;52.210;5.158;2023-04-07T08:42:34;101661.22;;;10.03;100.00
65329;BME280;51941;52.210;5.158;2023-04-07T08:45:06;101654.50;;;10.07;100.00
65329;BME280;51941;52.210;5.158;2023-04-07T08:47:35;101658.56;;;10.16;100.00
65329;BME280;51941;52.210;5.158;2023-04-07T08:50:04;101658.56;;;10.03;100.00
65329;BME280;51941;52.210;5.158;2023-04-07T08:52:33;101655.53;;;10.06;100.00
65329;BME280;51941;52.210;5.158;2023-04-07T08:55:00;101645.34;;;10.16;100.00
65329;BME280;51941;52.210;5.158;2023-04-07T08:57:29;101653.38;;;10.41;100.00
65329;BME280;51941;52.210;5.158;2023-04-07T08:59:58;101657.22;;;10.52;100.00
65329;BME280;51941;52.210;5.158;2023-04-07T09:02:29;101648.63;;;10.56;100.00
65329;BME280;51941;52.210;5.158;2023-04-07T09:04:56;101661.00;;;10.76;100.00
65329;BME280;51941;52.210;5.158;2023-04-07T09:07:23;101662.28;;;10.60;100.00
65329;BME280;51941;52.210;5.158;2023-04-07T09:09:54;101659.41;;;10.61;100.00
65329;BME280;51941;52.210;5.158;2023-04-07T09:12:21;101667.19;;;10.50;100.00
65329;BME280;51941;52.210;5.158;2023-04-07T09:14:47;101666.97;;;10.58;100.00
65329;BME280;51941;52.210;5.158;2023-04-07T09:17:15;101668.75;;;10.64;100.00
65329;BME280;51941;52.210;5.158;2023-04-07T09:19:42;101670.44;;;10.58;100.00
65329;BME280;51941;52.210;5.158;2023-04-07T09:22:09;101678.91;;;10.80;100.00
65329;BME280;51941;52.210;5.158;2023-04-07T09:24:39;101675.63;;;10.85;100.00
65329;BME280;51941;52.210;5.158;2023-04-07T09:27:12;101676.59;;;10.90;100.00
65329;BME280;51941;52.210;5.158;2023-04-07T09:29:41;101677.13;;;11.05;100.00
65329;BME280;51941;52.210;5.158;2023-04-07T09:32:08;101682.22;;;11.07;100.00
65329;BME280;51941;52.210;5.158;2023-04-07T09:34:38;101689.53;;;11.12;100.00
65329;BME280;51941;52.210;5.158;2023-04-07T09:37:06;101686.44;;;11.21;100.00
65329;BME280;51941;52.210;5.158;2023-04-07T09:39:47;101689.69;;;11.17;100.00
65329;BME280;51941;52.210;5.158;2023-04-07T09:42:14;101680.56;;;11.13;100.00
65329;BME280;51941;52.210;5.158;2023-04-07T09:44:42;101683.84;;;11.08;100.00
65329;BME280;51941;52.210;5.158;2023-04-07T09:47:09;101690.81;;;11.02;100.00
65329;BME280;51941;52.210;5.158;2023-04-07T09:49:49;101681.03;;;11.03;100.00
65329;BME280;51941;52.210;5.158;2023-04-07T09:52:18;101664.69;;;11.06;100.00
65329;BME280;51941;52.210;5.158;2023-04-07T09:54:46;101684.97;;;11.25;100.00
65329;BME280;51941;52.210;5.158;2023-04-07T09:57:14;101686.91;;;11.12;100.00
65329;BME280;51941;52.210;5.158;2023-04-07T09:59:43;101645.94;;;10.76;100.00
65329;BME280;51941;52.210;5.158;2023-04-07T10:02:10;101689.44;;;10.93;100.00
65329;BME280;51941;52.210;5.158;2023-04-07T10:04:37;101687.91;;;11.11;100.00
65329;BME280;51941;52.210;5.158;2023-04-07T10:07:06;101670.19;;;11.11;100.00
65329;BME280;51941;52.210;5.158;2023-04-07T10:09:33;101691.25;;;11.31;100.00
65329;BME280;51941;52.210;5.158;2023-04-07T10:12:01;101688.16;;;11.34;100.00
65329;BME280;51941;52.210;5.158;2023-04-07T10:14:30;101695.03;;;11.41;100.00
65329;BME280;51941;52.210;5.158;2023-04-07T10:16:58;101691.97;;;11.44;100.00
65329;BME280;51941;52.210;5.158;2023-04-07T10:19:28;101694.63;;;11.44;100.00
65329;BME280;51941;52.210;5.158;2023-04-07T10:21:57;101691.75;;;11.46;100.00
65329;BME280;51941;52.210;5.158;2023-04-07T10:24:36;101691.38;;;11.42;100.00
65329;BME280;51941;52.210;5.158;2023-04-07T10:27:12;101698.28;;;11.43;100.00
65329;BME280;51941;52.210;5.158;2023-04-07T10:29:41;101703.84;;;11.35;100.00
65329;BME280;51941;52.210;5.158;2023-04-07T10:32:09;101707.16;;;11.31;100.00
65329;BME280;51941;52.210;5.158;2023-04-07T10:34:57;101715.06;;;11.37;100.00
65329;BME280;51941;52.210;5.158;2023-04-07T10:37:25;101720.22;;;11.26;100.00
65329;BME280;51941;52.210;5.158;2023-04-07T10:40:28;101716.28;;;11.35;100.00
65329;BME280;51941;52.210;5.158;2023-04-07T10:42:55;101709.56;;;11.32;100.00
65329;BME280;51941;52.210;5.158;2023-04-07T10:45:53;101725.88;;;11.36;100.00
65329;BME280;51941;52.210;5.158;2023-04-07T10:48:24;101725.13;;;11.29;100.00
65329;BME280;51941;52.210;5.158;2023-04-07T10:51:15;101728.72;;;11.34;100.00
65329;BME280;51941;52.210;5.158;2023-04-07T10:57:11;101737.34;;;11.30;100.00
65329;BME280;51941;52.210;5.158;2023-04-07T10:59:40;101713.75;;;11.15;100.00
65329;BME280;51941;52.210;5.158;2023-04-07T11:02:29;101731.72;;;11.13;100.00
65329;BME280;51941;52.210;5.158;2023-04-07T11:04:56;101731.81;;;11.31;100.00
65329;BME280;51941;52.210;5.158;2023-04-07T11:07:43;101736.56;;;11.54;100.00
65329;BME280;51941;52.210;5.158;2023-04-07T11:10:11;101732.53;;;11.45;100.00
65329;BME280;51941;52.210;5.158;2023-04-07T11:12:39;101739.69;;;11.44;100.00
65329;BME280;51941;52.210;5.158;2023-04-07T11:15:21;101737.94;;;11.63;100.00
65329;BME280;51941;52.210;5.158;2023-04-07T11:18:09;101731.41;;;11.84;99.09
65329;BME280;51941;52.210;5.158;2023-04-07T11:20:45;101729.75;;;11.90;98.65
65329;BME280;51941;52.210;5.158;2023-04-07T11:23:12;101732.84;;;11.87;98.13
65329;BME280;51941;52.210;5.158;2023-04-07T11:25:41;101728.19;;;11.82;97.53
65329;BME280;51941;52.210;5.158;2023-04-07T11:28:10;101734.66;;;11.93;97.34
65329;BME280;51941;52.210;5.158;2023-04-07T11:30:38;101730.78;;;11.89;97.32
65329;BME280;51941;52.210;5.158;2023-04-07T11:33:06;101738.91;;;11.94;97.25
65329;BME280;51941;52.210;5.158;2023-04-07T11:35:34;101735.50;;;11.87;96.95
65329;BME280;51941;52.210;5.158;2023-04-07T11:38:02;101715.84;;;11.69;96.57
65329;BME280;51941;52.210;5.158;2023-04-07T11:40:33;101738.19;;;11.80;96.15
65329;BME280;51941;52.210;5.158;2023-04-07T11:43:01;101754.44;;;11.90;95.72
65329;BME280;51941;52.210;5.158;2023-04-07T11:45:29;101753.63;;;11.90;96.08
65329;BME280;51941;52.210;5.158;2023-04-07T11:47:56;101730.50;;;11.72;96.47
65329;BME280;51941;52.210;5.158;2023-04-07T11:50:38;101755.16;;;11.79;95.47
65329;BME280;51941;52.210;5.158;2023-04-07T11:53:05;101760.84;;;11.82;96.36
65329;BME280;51941;52.210;5.158;2023-04-07T11:55:31;101765.00;;;11.72;96.37
65329;BME280;51941;52.210;5.158;2023-04-07T11:58:04;101750.03;;;11.53;97.13
65329;BME280;51941;52.210;5.158;2023-04-07T12:00:32;101766.88;;;11.65;97.34
65329;BME280;51941;52.210;5.158;2023-04-07T12:03:08;101766.03;;;11.39;97.04
65329;BME280;51941;52.210;5.158;2023-04-07T12:05:41;101773.53;;;11.42;97.94
65329;BME280;51941;52.210;5.158;2023-04-07T12:08:08;101773.69;;;11.16;99.65
65329;BME280;51941;52.210;5.158;2023-04-07T12:10:35;101780.66;;;11.11;100.00
65329;BME280;51941;52.210;5.158;2023-04-07T12:13:05;101775.31;;;11.17;100.00
65329;BME280;51941;52.210;5.158;2023-04-07T12:15:33;101773.19;;;11.32;100.00
65329;BME280;51941;52.210;5.158;2023-04-07T12:18:01;101780.69;;;11.42;100.00
65329;BME280;51941;52.210;5.158;2023-04-07T12:20:28;101775.09;;;11.57;100.00
65329;BME280;51941;52.210;5.158;2023-04-07T12:22:55;101779.34;;;11.64;100.00
65329;BME280;51941;52.210;5.158;2023-04-07T12:25:23;101768.19;;;11.49;100.00
65329;BME280;51941;52.210;5.158;2023-04-07T12:27:49;101781.13;;;11.70;100.00
65329;BME280;51941;52.210;5.158;2023-04-07T12:30:16;101790.50;;;11.73;100.00
65329;BME280;51941;52.210;5.158;2023-04-07T12:32:44;101796.44;;;11.68;99.82
65329;BME280;51941;52.210;5.158;2023-04-07T12:35:11;101796.63;;;11.73;100.00
65329;BME280;51941;52.210;5.158;2023-04-07T12:37:38;101796.56;;;11.80;100.00
65329;BME280;51941;52.210;5.158;2023-04-07T12:40:06;101794.78;;;11.74;100.00
65329;BME280;51941;52.210;5.158;2023-04-07T12:42:33;101801.06;;;11.79;100.00
65329;BME280;51941;52.210;5.158;2023-04-07T12:44:59;101804.03;;;11.90;100.00
65329;BME280;51941;52.210;5.158;2023-04-07T12:47:27;101802.84;;;11.86;99.97
65329;BME280;51941;52.210;5.158;2023-04-07T12:49:55;101812.63;;;11.85;100.00
65329;BME280;51941;52.210;5.158;2023-04-07T12:52:22;101808.69;;;11.94;100.00
65329;BME280;51941;52.210;5.158;2023-04-07T12:54:48;101810.84;;;11.79;100.00
65329;BME280;51941;52.210;5.158;2023-04-07T12:57:15;101811.81;;;11.85;100.00
65329;BME280;51941;52.210;5.158;2023-04-07T12:59:42;101813.84;;;11.89;100.00
65329;BME280;51941;52.210;5.158;2023-04-07T13:02:09;101809.28;;;11.96;100.00
65329;BME280;51941;52.210;5.158;2023-04-07T13:04:38;101807.25;;;11.98;100.00